Flugplatz Gotha-Ost (EDEG)

Hier findest Du alle Informationen zum Flugplatz Gotha-Ost (EDEG).

Informationen für Piloten zum Flugplatz Gotha-Ost

Hier findest Du alle relevanten Informationen, die Du als Pilot benötigst, um Gotha-Ost anzufliegen.

Flugplatz: Gotha-Ost ICAO-Code: EDEG
Frequenz Turm: 122,500 Mhz GAFOR Gebiet: 24
Frequenz Ground: 122,500 Mhz Mogas: nein
Platzrunde: N 1800 ft Landegebühr: -
Platzhöhe: - Sunrise: 07:08 Uhr UTC
Pisten: 08/26 - 470 m x , GRAS Sunset: 15:46 Uhr UTC

Mitglieder, die in Gotha-Ost fliegen

Flugwetter am Flugplatz Gotha-Ost

Die METAR Information stammen aus EDDE (16.13 km entfernt).

METAR Code:
2022/01/15 18:50
EDDE 151850Z 20005KT CAVOK M00/M02 Q1025 NOSIG

Temperatur: 2,5 °C Niederschlag: - Wind: 7,0 kt
Temperatur (min.): 0,9 °C Luftdruck: 1036 hPa Windrichtung: 280 °
Temperatur (max.): 4,2 °C Luftfeuchtigkeit: 93 % Bewölkung: 8/8

Flugschulen am Flugplatz Gotha-Ost

Am Flugplatz Gotha-Ost gibt es eine Flugschule.

Benachbarte Flugplätze und Flugschulen

Es gibt 14 weitere Flugplätze in einem Umkreis von 50 km um den Flugplatz Gotha-Ost.

Jetzt anmelden

Passwort vergessen

Umfrage Archiv

Welche Navigations-App nutzt Ihr im Cockpit

SkyDemon
50.6 %
VFRnav
19.4 %
Ich nutze eine andere App
17.8 %
EasyVFR
5.3 %
Ich nutze gar keine App
5.3 %
ForeFlight
1.6 %
Stimmen: 247 | Diskussion (45)
Anzeige: Roland Aircraft
Statistik Alle Mitglieder

Aktuell sind 44 Besucher online.

Anzeige: Pocket FMS